sensor_id;sensor_type;location;lat;lon;timestamp;P1;durP1;ratioP1;P2;durP2;ratioP2
25615;SDS011;13482;48.234;13.006;2023-03-01T00:01:39;6.35;;;4.68;;
25615;SDS011;13482;48.234;13.006;2023-03-01T00:04:07;7.75;;;5.60;;
25615;SDS011;13482;48.234;13.006;2023-03-01T00:06:34;8.05;;;5.68;;
25615;SDS011;13482;48.234;13.006;2023-03-01T00:09:01;7.07;;;5.32;;
25615;SDS011;13482;48.234;13.006;2023-03-01T00:11:29;6.38;;;4.63;;
25615;SDS011;13482;48.234;13.006;2023-03-01T00:13:59;8.60;;;5.72;;
25615;SDS011;13482;48.234;13.006;2023-03-01T00:16:29;8.93;;;5.47;;
25615;SDS011;13482;48.234;13.006;2023-03-01T00:19:02;8.07;;;5.90;;
25615;SDS011;13482;48.234;13.006;2023-03-01T00:21:29;8.18;;;5.63;;
25615;SDS011;13482;48.234;13.006;2023-03-01T00:23:57;7.88;;;5.13;;
25615;SDS011;13482;48.234;13.006;2023-03-01T00:26:24;7.25;;;5.38;;
25615;SDS011;13482;48.234;13.006;2023-03-01T00:28:53;7.45;;;5.50;;
25615;SDS011;13482;48.234;13.006;2023-03-01T00:31:25;7.40;;;5.55;;
25615;SDS011;13482;48.234;13.006;2023-03-01T00:33:58;7.18;;;5.25;;
25615;SDS011;13482;48.234;13.006;2023-03-01T00:36:29;7.73;;;5.10;;
25615;SDS011;13482;48.234;13.006;2023-03-01T00:39:00;7.18;;;4.85;;
25615;SDS011;13482;48.234;13.006;2023-03-01T00:41:29;10.52;;;6.00;;
25615;SDS011;13482;48.234;13.006;2023-03-01T00:43:56;7.35;;;5.35;;
25615;SDS011;13482;48.234;13.006;2023-03-01T00:46:24;7.80;;;5.65;;
25615;SDS011;13482;48.234;13.006;2023-03-01T00:48:53;8.18;;;5.65;;
25615;SDS011;13482;48.234;13.006;2023-03-01T00:51:24;8.23;;;5.30;;
25615;SDS011;13482;48.234;13.006;2023-03-01T00:53:55;10.10;;;6.03;;
25615;SDS011;13482;48.234;13.006;2023-03-01T00:56:26;8.82;;;5.78;;
25615;SDS011;13482;48.234;13.006;2023-03-01T00:58:54;7.65;;;5.13;;
25615;SDS011;13482;48.234;13.006;2023-03-01T01:01:23;9.20;;;6.15;;
25615;SDS011;13482;48.234;13.006;2023-03-01T01:06:30;7.40;;;5.18;;
25615;SDS011;13482;48.234;13.006;2023-03-01T01:09:02;7.45;;;5.30;;
25615;SDS011;13482;48.234;13.006;2023-03-01T01:11:32;10.53;;;6.03;;
25615;SDS011;13482;48.234;13.006;2023-03-01T01:14:01;8.13;;;5.35;;
25615;SDS011;13482;48.234;13.006;2023-03-01T01:16:29;8.68;;;5.70;;
25615;SDS011;13482;48.234;13.006;2023-03-01T01:18:57;8.00;;;5.78;;
25615;SDS011;13482;48.234;13.006;2023-03-01T01:21:25;8.57;;;5.45;;
25615;SDS011;13482;48.234;13.006;2023-03-01T01:23:53;7.80;;;5.60;;
25615;SDS011;13482;48.234;13.006;2023-03-01T01:26:22;7.90;;;5.25;;
25615;SDS011;13482;48.234;13.006;2023-03-01T01:28:56;7.80;;;5.55;;
25615;SDS011;13482;48.234;13.006;2023-03-01T01:31:25;7.15;;;5.18;;
25615;SDS011;13482;48.234;13.006;2023-03-01T01:33:54;7.07;;;5.45;;
25615;SDS011;13482;48.234;13.006;2023-03-01T01:36:22;7.97;;;5.50;;
25615;SDS011;13482;48.234;13.006;2023-03-01T01:38:51;7.85;;;5.57;;
25615;SDS011;13482;48.234;13.006;2023-03-01T01:41:19;8.30;;;5.65;;
25615;SDS011;13482;48.234;13.006;2023-03-01T01:44:10;8.75;;;5.53;;
25615;SDS011;13482;48.234;13.006;2023-03-01T01:46:49;8.77;;;5.13;;
25615;SDS011;13482;48.234;13.006;2023-03-01T01:57:22;8.82;;;5.68;;
25615;SDS011;13482;48.234;13.006;2023-03-01T02:00:14;7.95;;;5.32;;
25615;SDS011;13482;48.234;13.006;2023-03-01T02:02:48;7.53;;;5.00;;
25615;SDS011;13482;48.234;13.006;2023-03-01T02:05:26;7.55;;;5.40;;
25615;SDS011;13482;48.234;13.006;2023-03-01T02:08:01;7.53;;;5.32;;
25615;SDS011;13482;48.234;13.006;2023-03-01T02:10:28;7.57;;;5.35;;
25615;SDS011;13482;48.234;13.006;2023-03-01T02:12:59;10.02;;;5.85;;
25615;SDS011;13482;48.234;13.006;2023-03-01T02:15:31;7.85;;;5.50;;
25615;SDS011;13482;48.234;13.006;2023-03-01T02:18:05;8.57;;;5.75;;
25615;SDS011;13482;48.234;13.006;2023-03-01T02:23:44;8.60;;;5.43;;
25615;SDS011;13482;48.234;13.006;2023-03-01T02:26:18;7.68;;;5.53;;
25615;SDS011;13482;48.234;13.006;2023-03-01T02:28:52;10.15;;;6.28;;
25615;SDS011;13482;48.234;13.006;2023-03-01T02:31:20;8.52;;;5.60;;
25615;SDS011;13482;48.234;13.006;2023-03-01T02:34:06;7.45;;;5.40;;
25615;SDS011;13482;48.234;13.006;2023-03-01T02:36:53;11.02;;;5.82;;
25615;SDS011;13482;48.234;13.006;2023-03-01T02:39:30;8.50;;;5.85;;
25615;SDS011;13482;48.234;13.006;2023-03-01T02:42:03;7.80;;;5.40;;
25615;SDS011;13482;48.234;13.006;2023-03-01T02:44:31;9.25;;;5.95;;
25615;SDS011;13482;48.234;13.006;2023-03-01T02:46:59;8.68;;;6.00;;
25615;SDS011;13482;48.234;13.006;2023-03-01T02:49:33;9.13;;;6.00;;
25615;SDS011;13482;48.234;13.006;2023-03-01T02:54:53;8.77;;;5.72;;
25615;SDS011;13482;48.234;13.006;2023-03-01T02:57:32;7.93;;;5.20;;
25615;SDS011;13482;48.234;13.006;2023-03-01T03:00:06;10.57;;;6.07;;
25615;SDS011;13482;48.234;13.006;2023-03-01T03:02:37;8.98;;;6.10;;
25615;SDS011;13482;48.234;13.006;2023-03-01T03:05:10;8.85;;;5.93;;
25615;SDS011;13482;48.234;13.006;2023-03-01T03:07:46;8.80;;;5.85;;
25615;SDS011;13482;48.234;13.006;2023-03-01T03:10:16;8.48;;;5.60;;
25615;SDS011;13482;48.234;13.006;2023-03-01T03:12:51;6.75;;;5.15;;
25615;SDS011;13482;48.234;13.006;2023-03-01T03:15:24;7.65;;;5.47;;
25615;SDS011;13482;48.234;13.006;2023-03-01T03:17:54;8.57;;;6.00;;
25615;SDS011;13482;48.234;13.006;2023-03-01T03:20:23;9.02;;;5.93;;
25615;SDS011;13482;48.234;13.006;2023-03-01T03:22:54;9.75;;;6.18;;
25615;SDS011;13482;48.234;13.006;2023-03-01T03:25:25;7.57;;;5.35;;
25615;SDS011;13482;48.234;13.006;2023-03-01T03:27:54;7.80;;;5.43;;
25615;SDS011;13482;48.234;13.006;2023-03-01T03:30:26;7.72;;;5.20;;
25615;SDS011;13482;48.234;13.006;2023-03-01T03:32:57;8.80;;;5.45;;
25615;SDS011;13482;48.234;13.006;2023-03-01T03:35:27;7.45;;;4.95;;
25615;SDS011;13482;48.234;13.006;2023-03-01T03:38:01;7.82;;;5.50;;
25615;SDS011;13482;48.234;13.006;2023-03-01T03:41:01;9.13;;;5.80;;
25615;SDS011;13482;48.234;13.006;2023-03-01T03:43:32;7.28;;;4.70;;
25615;SDS011;13482;48.234;13.006;2023-03-01T03:46:01;7.13;;;5.05;;
25615;SDS011;13482;48.234;13.006;2023-03-01T03:48:36;7.22;;;5.20;;
25615;SDS011;13482;48.234;13.006;2023-03-01T03:51:13;7.50;;;5.05;;
25615;SDS011;13482;48.234;13.006;2023-03-01T03:53:43;7.53;;;5.68;;
25615;SDS011;13482;48.234;13.006;2023-03-01T03:56:11;7.50;;;5.38;;
25615;SDS011;13482;48.234;13.006;2023-03-01T03:58:38;7.63;;;5.30;;
25615;SDS011;13482;48.234;13.006;2023-03-01T04:01:06;9.40;;;5.93;;
25615;SDS011;13482;48.234;13.006;2023-03-01T04:03:33;9.13;;;5.88;;
25615;SDS011;13482;48.234;13.006;2023-03-01T04:06:01;8.75;;;5.65;;
25615;SDS011;13482;48.234;13.006;2023-03-01T04:08:30;7.57;;;5.43;;
25615;SDS011;13482;48.234;13.006;2023-03-01T04:11:01;8.88;;;5.97;;
25615;SDS011;13482;48.234;13.006;2023-03-01T04:13:51;9.38;;;5.90;;
25615;SDS011;13482;48.234;13.006;2023-03-01T04:16:20;7.90;;;5.70;;
25615;SDS011;13482;48.234;13.006;2023-03-01T04:18:48;8.25;;;5.78;;
25615;SDS011;13482;48.234;13.006;2023-03-01T04:21:15;8.25;;;5.68;;
25615;SDS011;13482;48.234;13.006;2023-03-01T04:23:43;9.38;;;6.05;;
25615;SDS011;13482;48.234;13.006;2023-03-01T04:26:10;8.10;;;5.85;;
25615;SDS011;13482;48.234;13.006;2023-03-01T04:28:41;9.15;;;5.78;;
25615;SDS011;13482;48.234;13.006;2023-03-01T04:31:13;9.05;;;5.88;;
25615;SDS011;13482;48.234;13.006;2023-03-01T04:33:45;8.80;;;6.00;;
25615;SDS011;13482;48.234;13.006;2023-03-01T04:36:18;9.23;;;6.03;;
25615;SDS011;13482;48.234;13.006;2023-03-01T04:38:52;8.80;;;5.85;;
25615;SDS011;13482;48.234;13.006;2023-03-01T04:41:20;9.43;;;6.68;;
25615;SDS011;13482;48.234;13.006;2023-03-01T04:43:50;10.50;;;6.47;;
25615;SDS011;13482;48.234;13.006;2023-03-01T04:46:19;10.00;;;6.10;;
25615;SDS011;13482;48.234;13.006;2023-03-01T04:48:47;8.30;;;5.70;;
25615;SDS011;13482;48.234;13.006;2023-03-01T04:51:15;8.13;;;5.90;;
25615;SDS011;13482;48.234;13.006;2023-03-01T04:53:43;9.10;;;5.75;;
25615;SDS011;13482;48.234;13.006;2023-03-01T04:56:11;8.68;;;6.30;;
25615;SDS011;13482;48.234;13.006;2023-03-01T04:58:40;8.00;;;5.75;;
25615;SDS011;13482;48.234;13.006;2023-03-01T05:01:08;8.60;;;5.72;;
25615;SDS011;13482;48.234;13.006;2023-03-01T05:03:42;8.73;;;5.85;;
25615;SDS011;13482;48.234;13.006;2023-03-01T05:06:11;8.65;;;5.82;;
25615;SDS011;13482;48.234;13.006;2023-03-01T05:08:38;8.60;;;6.60;;
25615;SDS011;13482;48.234;13.006;2023-03-01T05:11:07;7.97;;;5.15;;
25615;SDS011;13482;48.234;13.006;2023-03-01T05:13:35;9.07;;;5.97;;
25615;SDS011;13482;48.234;13.006;2023-03-01T05:16:04;8.07;;;5.50;;
25615;SDS011;13482;48.234;13.006;2023-03-01T05:18:38;10.15;;;6.28;;
25615;SDS011;13482;48.234;13.006;2023-03-01T05:21:08;9.27;;;6.05;;
25615;SDS011;13482;48.234;13.006;2023-03-01T05:26:05;8.60;;;5.43;;
25615;SDS011;13482;48.234;13.006;2023-03-01T05:28:47;7.60;;;5.22;;
25615;SDS011;13482;48.234;13.006;2023-03-01T05:31:14;8.80;;;5.90;;
25615;SDS011;13482;48.234;13.006;2023-03-01T05:33:42;9.05;;;5.88;;
25615;SDS011;13482;48.234;13.006;2023-03-01T05:36:09;9.55;;;6.50;;
25615;SDS011;13482;48.234;13.006;2023-03-01T05:38:37;9.90;;;6.43;;
25615;SDS011;13482;48.234;13.006;2023-03-01T05:41:04;8.82;;;5.90;;
25615;SDS011;13482;48.234;13.006;2023-03-01T05:43:31;8.10;;;5.78;;
25615;SDS011;13482;48.234;13.006;2023-03-01T05:46:01;9.07;;;5.95;;
25615;SDS011;13482;48.234;13.006;2023-03-01T05:48:28;9.48;;;6.55;;
25615;SDS011;13482;48.234;13.006;2023-03-01T05:50:57;9.65;;;6.57;;
25615;SDS011;13482;48.234;13.006;2023-03-01T05:53:27;11.80;;;6.68;;
25615;SDS011;13482;48.234;13.006;2023-03-01T05:55:54;9.45;;;6.45;;
25615;SDS011;13482;48.234;13.006;2023-03-01T05:58:21;10.23;;;6.80;;
25615;SDS011;13482;48.234;13.006;2023-03-01T06:00:48;10.13;;;6.45;;
25615;SDS011;13482;48.234;13.006;2023-03-01T06:03:17;10.02;;;6.80;;
25615;SDS011;13482;48.234;13.006;2023-03-01T06:05:44;10.43;;;6.65;;
25615;SDS011;13482;48.234;13.006;2023-03-01T06:08:12;10.27;;;6.82;;
25615;SDS011;13482;48.234;13.006;2023-03-01T06:10:40;10.90;;;6.82;;
25615;SDS011;13482;48.234;13.006;2023-03-01T06:13:07;12.20;;;7.13;;
25615;SDS011;13482;48.234;13.006;2023-03-01T06:15:34;9.75;;;6.50;;
25615;SDS011;13482;48.234;13.006;2023-03-01T06:18:01;9.00;;;6.13;;
25615;SDS011;13482;48.234;13.006;2023-03-01T06:20:29;10.57;;;6.95;;
25615;SDS011;13482;48.234;13.006;2023-03-01T06:22:56;10.48;;;6.90;;
25615;SDS011;13482;48.234;13.006;2023-03-01T06:25:24;11.13;;;6.55;;
25615;SDS011;13482;48.234;13.006;2023-03-01T06:27:53;10.50;;;6.60;;
25615;SDS011;13482;48.234;13.006;2023-03-01T06:30:21;9.25;;;6.43;;
25615;SDS011;13482;48.234;13.006;2023-03-01T06:32:51;9.52;;;6.50;;
25615;SDS011;13482;48.234;13.006;2023-03-01T06:35:19;10.95;;;6.93;;
25615;SDS011;13482;48.234;13.006;2023-03-01T06:37:47;9.20;;;6.63;;
25615;SDS011;13482;48.234;13.006;2023-03-01T06:40:15;12.10;;;7.70;;
25615;SDS011;13482;48.234;13.006;2023-03-01T06:42:43;10.77;;;6.93;;
25615;SDS011;13482;48.234;13.006;2023-03-01T06:45:16;8.98;;;6.10;;
25615;SDS011;13482;48.234;13.006;2023-03-01T06:47:45;12.10;;;7.05;;
25615;SDS011;13482;48.234;13.006;2023-03-01T06:50:12;10.80;;;7.00;;
25615;SDS011;13482;48.234;13.006;2023-03-01T06:52:44;10.40;;;7.32;;
25615;SDS011;13482;48.234;13.006;2023-03-01T06:55:12;11.57;;;7.80;;
25615;SDS011;13482;48.234;13.006;2023-03-01T06:57:39;9.85;;;6.95;;
25615;SDS011;13482;48.234;13.006;2023-03-01T07:00:07;11.45;;;7.38;;
25615;SDS011;13482;48.234;13.006;2023-03-01T07:02:35;13.68;;;7.22;;
25615;SDS011;13482;48.234;13.006;2023-03-01T07:05:02;10.32;;;7.18;;
25615;SDS011;13482;48.234;13.006;2023-03-01T07:07:30;10.90;;;6.93;;
25615;SDS011;13482;48.234;13.006;2023-03-01T07:09:57;9.95;;;6.97;;
25615;SDS011;13482;48.234;13.006;2023-03-01T07:12:24;10.75;;;7.07;;
25615;SDS011;13482;48.234;13.006;2023-03-01T07:14:51;9.63;;;7.20;;
25615;SDS011;13482;48.234;13.006;2023-03-01T07:17:18;10.70;;;7.78;;
25615;SDS011;13482;48.234;13.006;2023-03-01T07:19:46;10.90;;;7.13;;
25615;SDS011;13482;48.234;13.006;2023-03-01T07:22:13;11.23;;;7.35;;
25615;SDS011;13482;48.234;13.006;2023-03-01T07:24:41;9.85;;;6.90;;
25615;SDS011;13482;48.234;13.006;2023-03-01T07:27:09;10.00;;;7.18;;
25615;SDS011;13482;48.234;13.006;2023-03-01T07:29:37;9.52;;;7.05;;
25615;SDS011;13482;48.234;13.006;2023-03-01T07:32:04;11.05;;;7.80;;
25615;SDS011;13482;48.234;13.006;2023-03-01T07:34:32;11.52;;;7.85;;
25615;SDS011;13482;48.234;13.006;2023-03-01T07:36:59;11.30;;;7.82;;
25615;SDS011;13482;48.234;13.006;2023-03-01T07:39:26;10.88;;;7.95;;
25615;SDS011;13482;48.234;13.006;2023-03-01T07:41:54;10.68;;;7.97;;
25615;SDS011;13482;48.234;13.006;2023-03-01T07:44:21;10.48;;;7.68;;
25615;SDS011;13482;48.234;13.006;2023-03-01T07:46:48;11.82;;;8.15;;
25615;SDS011;13482;48.234;13.006;2023-03-01T07:49:15;11.32;;;7.57;;
25615;SDS011;13482;48.234;13.006;2023-03-01T07:51:42;12.45;;;8.13;;
25615;SDS011;13482;48.234;13.006;2023-03-01T07:54:10;12.02;;;8.38;;
25615;SDS011;13482;48.234;13.006;2023-03-01T07:56:37;11.35;;;8.10;;
25615;SDS011;13482;48.234;13.006;2023-03-01T07:59:04;12.38;;;8.10;;
25615;SDS011;13482;48.234;13.006;2023-03-01T08:01:31;12.05;;;8.07;;
25615;SDS011;13482;48.234;13.006;2023-03-01T08:03:58;11.50;;;8.07;;
25615;SDS011;13482;48.234;13.006;2023-03-01T08:06:25;13.32;;;7.97;;
25615;SDS011;13482;48.234;13.006;2023-03-01T08:08:53;10.57;;;7.88;;
25615;SDS011;13482;48.234;13.006;2023-03-01T08:11:22;9.93;;;7.70;;
25615;SDS011;13482;48.234;13.006;2023-03-01T08:13:50;11.82;;;8.05;;
25615;SDS011;13482;48.234;13.006;2023-03-01T08:16:19;12.77;;;8.45;;
25615;SDS011;13482;48.234;13.006;2023-03-01T08:18:46;11.23;;;8.23;;
25615;SDS011;13482;48.234;13.006;2023-03-01T08:21:14;11.73;;;8.23;;
25615;SDS011;13482;48.234;13.006;2023-03-01T08:23:43;11.82;;;8.20;;
25615;SDS011;13482;48.234;13.006;2023-03-01T08:26:13;11.68;;;8.95;;
25615;SDS011;13482;48.234;13.006;2023-03-01T08:28:45;13.68;;;8.43;;
25615;SDS011;13482;48.234;13.006;2023-03-01T08:33:53;10.68;;;8.10;;
25615;SDS011;13482;48.234;13.006;2023-03-01T08:36:24;12.43;;;9.25;;
25615;SDS011;13482;48.234;13.006;2023-03-01T08:38:54;11.95;;;8.15;;
25615;SDS011;13482;48.234;13.006;2023-03-01T08:41:22;12.10;;;8.55;;
25615;SDS011;13482;48.234;13.006;2023-03-01T08:43:49;12.57;;;8.75;;
25615;SDS011;13482;48.234;13.006;2023-03-01T08:46:17;11.75;;;8.23;;
25615;SDS011;13482;48.234;13.006;2023-03-01T08:48:44;12.40;;;8.95;;
25615;SDS011;13482;48.234;13.006;2023-03-01T08:51:16;13.75;;;9.13;;
25615;SDS011;13482;48.234;13.006;2023-03-01T08:53:47;13.38;;;9.25;;
25615;SDS011;13482;48.234;13.006;2023-03-01T08:56:15;11.25;;;8.50;;
25615;SDS011;13482;48.234;13.006;2023-03-01T08:58:47;13.57;;;9.48;;
25615;SDS011;13482;48.234;13.006;2023-03-01T09:01:16;11.77;;;8.68;;
25615;SDS011;13482;48.234;13.006;2023-03-01T09:03:45;11.75;;;8.18;;
25615;SDS011;13482;48.234;13.006;2023-03-01T09:06:13;12.35;;;8.93;;
25615;SDS011;13482;48.234;13.006;2023-03-01T09:08:42;12.13;;;9.00;;
25615;SDS011;13482;48.234;13.006;2023-03-01T09:11:13;11.35;;;8.52;;
25615;SDS011;13482;48.234;13.006;2023-03-01T09:16:13;11.68;;;7.70;;
25615;SDS011;13482;48.234;13.006;2023-03-01T09:18:43;9.98;;;7.63;;
25615;SDS011;13482;48.234;13.006;2023-03-01T09:21:12;11.43;;;8.48;;
25615;SDS011;13482;48.234;13.006;2023-03-01T09:23:45;13.13;;;8.52;;
25615;SDS011;13482;48.234;13.006;2023-03-01T09:26:15;12.45;;;9.20;;
25615;SDS011;13482;48.234;13.006;2023-03-01T09:28:52;12.60;;;8.85;;
25615;SDS011;13482;48.234;13.006;2023-03-01T09:31:22;11.93;;;8.38;;
25615;SDS011;13482;48.234;13.006;2023-03-01T09:33:51;12.02;;;8.25;;
25615;SDS011;13482;48.234;13.006;2023-03-01T09:36:21;12.55;;;9.20;;
25615;SDS011;13482;48.234;13.006;2023-03-01T09:38:51;11.93;;;9.15;;
25615;SDS011;13482;48.234;13.006;2023-03-01T09:47:24;13.85;;;9.45;;
25615;SDS011;13482;48.234;13.006;2023-03-01T09:55:46;13.30;;;8.95;;
25615;SDS011;13482;48.234;13.006;2023-03-01T09:58:41;12.00;;;8.50;;
25615;SDS011;13482;48.234;13.006;2023-03-01T10:04:28;11.38;;;8.45;;
25615;SDS011;13482;48.234;13.006;2023-03-01T10:09:54;12.88;;;8.43;;
25615;SDS011;13482;48.234;13.006;2023-03-01T10:12:26;11.52;;;8.18;;
25615;SDS011;13482;48.234;13.006;2023-03-01T10:15:09;11.07;;;8.38;;
25615;SDS011;13482;48.234;13.006;2023-03-01T10:17:52;11.45;;;8.45;;
25615;SDS011;13482;48.234;13.006;2023-03-01T10:23:13;11.45;;;7.45;;
25615;SDS011;13482;48.234;13.006;2023-03-01T10:25:55;11.40;;;8.50;;
25615;SDS011;13482;48.234;13.006;2023-03-01T10:29:05;9.98;;;7.45;;
25615;SDS011;13482;48.234;13.006;2023-03-01T10:34:20;11.30;;;8.70;;
25615;SDS011;13482;48.234;13.006;2023-03-01T10:40:06;10.98;;;8.13;;
25615;SDS011;13482;48.234;13.006;2023-03-01T10:42:38;12.50;;;8.50;;
25615;SDS011;13482;48.234;13.006;2023-03-01T10:48:17;11.23;;;8.32;;
25615;SDS011;13482;48.234;13.006;2023-03-01T10:56:04;12.48;;;8.88;;
25615;SDS011;13482;48.234;13.006;2023-03-01T10:58:59;13.98;;;9.23;;
25615;SDS011;13482;48.234;13.006;2023-03-01T11:01:34;10.88;;;8.23;;
25615;SDS011;13482;48.234;13.006;2023-03-01T11:04:08;11.10;;;8.50;;
25615;SDS011;13482;48.234;13.006;2023-03-01T11:06:40;11.43;;;8.52;;
25615;SDS011;13482;48.234;13.006;2023-03-01T11:11:55;10.80;;;8.30;;
25615;SDS011;13482;48.234;13.006;2023-03-01T11:14:27;11.85;;;8.68;;
25615;SDS011;13482;48.234;13.006;2023-03-01T11:17:05;11.20;;;8.52;;
25615;SDS011;13482;48.234;13.006;2023-03-01T11:19:47;11.15;;;8.25;;
25615;SDS011;13482;48.234;13.006;2023-03-01T11:22:30;12.07;;;9.13;;
25615;SDS011;13482;48.234;13.006;2023-03-01T11:24:59;10.40;;;8.45;;
25615;SDS011;13482;48.234;13.006;2023-03-01T11:27:41;11.15;;;8.18;;
25615;SDS011;13482;48.234;13.006;2023-03-01T11:30:20;11.52;;;8.32;;
25615;SDS011;13482;48.234;13.006;2023-03-01T11:35:35;10.90;;;8.38;;
25615;SDS011;13482;48.234;13.006;2023-03-01T11:38:15;11.30;;;8.10;;
25615;SDS011;13482;48.234;13.006;2023-03-01T11:52:42;10.15;;;7.72;;
25615;SDS011;13482;48.234;13.006;2023-03-01T12:22:51;7.45;;;6.00;;
25615;SDS011;13482;48.234;13.006;2023-03-01T12:25:58;8.65;;;6.25;;
25615;SDS011;13482;48.234;13.006;2023-03-01T12:29:07;8.00;;;5.85;;
25615;SDS011;13482;48.234;13.006;2023-03-01T12:34:28;8.27;;;6.10;;
25615;SDS011;13482;48.234;13.006;2023-03-01T12:37:39;7.35;;;5.63;;
25615;SDS011;13482;48.234;13.006;2023-03-01T12:40:45;7.55;;;5.88;;
25615;SDS011;13482;48.234;13.006;2023-03-01T12:44:15;6.90;;;5.35;;
25615;SDS011;13482;48.234;13.006;2023-03-01T12:50:41;7.78;;;5.43;;
25615;SDS011;13482;48.234;13.006;2023-03-01T12:53:18;7.32;;;5.55;;
25615;SDS011;13482;48.234;13.006;2023-03-01T12:56:00;9.85;;;5.95;;
25615;SDS011;13482;48.234;13.006;2023-03-01T12:58:34;8.13;;;5.95;;
25615;SDS011;13482;48.234;13.006;2023-03-01T13:05:16;7.78;;;5.78;;
25615;SDS011;13482;48.234;13.006;2023-03-01T13:13:19;7.20;;;5.63;;
25615;SDS011;13482;48.234;13.006;2023-03-01T13:15:51;8.15;;;5.50;;
25615;SDS011;13482;48.234;13.006;2023-03-01T13:20:54;7.80;;;5.43;;
25615;SDS011;13482;48.234;13.006;2023-03-01T13:23:32;7.85;;;5.72;;
25615;SDS011;13482;48.234;13.006;2023-03-01T13:26:04;8.45;;;5.35;;
25615;SDS011;13482;48.234;13.006;2023-03-01T13:33:49;6.43;;;4.97;;
25615;SDS011;13482;48.234;13.006;2023-03-01T13:47:12;7.25;;;5.07;;
25615;SDS011;13482;48.234;13.006;2023-03-01T13:52:30;7.93;;;5.30;;
25615;SDS011;13482;48.234;13.006;2023-03-01T13:57:46;6.55;;;4.93;;
25615;SDS011;13482;48.234;13.006;2023-03-01T14:00:39;8.18;;;5.65;;
25615;SDS011;13482;48.234;13.006;2023-03-01T14:05:42;6.90;;;5.45;;
25615;SDS011;13482;48.234;13.006;2023-03-01T14:08:41;9.73;;;6.10;;
25615;SDS011;13482;48.234;13.006;2023-03-01T14:17:18;6.53;;;4.65;;
25615;SDS011;13482;48.234;13.006;2023-03-01T14:19:57;6.80;;;4.55;;
25615;SDS011;13482;48.234;13.006;2023-03-01T14:22:34;6.78;;;5.05;;
25615;SDS011;13482;48.234;13.006;2023-03-01T14:25:05;7.03;;;4.65;;
25615;SDS011;13482;48.234;13.006;2023-03-01T14:27:51;6.65;;;4.90;;
25615;SDS011;13482;48.234;13.006;2023-03-01T14:30:34;7.18;;;4.72;;
25615;SDS011;13482;48.234;13.006;2023-03-01T14:36:03;6.32;;;4.50;;
25615;SDS011;13482;48.234;13.006;2023-03-01T14:38:38;6.78;;;4.60;;
25615;SDS011;13482;48.234;13.006;2023-03-01T14:43:51;7.07;;;4.85;;
25615;SDS011;13482;48.234;13.006;2023-03-01T14:46:36;7.05;;;4.72;;
25615;SDS011;13482;48.234;13.006;2023-03-01T14:49:11;6.38;;;4.47;;
25615;SDS011;13482;48.234;13.006;2023-03-01T14:54:29;5.88;;;4.15;;
25615;SDS011;13482;48.234;13.006;2023-03-01T14:57:43;6.28;;;4.00;;
25615;SDS011;13482;48.234;13.006;2023-03-01T15:00:03;6.38;;;4.35;;
25615;SDS011;13482;48.234;13.006;2023-03-01T15:02:34;7.47;;;4.07;;
25615;SDS011;13482;48.234;13.006;2023-03-01T15:05:03;6.18;;;4.47;;
25615;SDS011;13482;48.234;13.006;2023-03-01T15:07:35;7.25;;;4.80;;
25615;SDS011;13482;48.234;13.006;2023-03-01T15:10:11;6.65;;;4.47;;
25615;SDS011;13482;48.234;13.006;2023-03-01T15:12:50;6.50;;;4.50;;
25615;SDS011;13482;48.234;13.006;2023-03-01T15:15:41;8.82;;;4.70;;
25615;SDS011;13482;48.234;13.006;2023-03-01T15:18:25;5.40;;;4.13;;
25615;SDS011;13482;48.234;13.006;2023-03-01T15:20:54;6.40;;;4.40;;
25615;SDS011;13482;48.234;13.006;2023-03-01T15:23:32;7.28;;;4.90;;
25615;SDS011;13482;48.234;13.006;2023-03-01T15:26:00;6.38;;;4.45;;
25615;SDS011;13482;48.234;13.006;2023-03-01T15:28:31;7.45;;;4.70;;
25615;SDS011;13482;48.234;13.006;2023-03-01T15:31:06;7.60;;;4.55;;
25615;SDS011;13482;48.234;13.006;2023-03-01T15:33:50;6.40;;;4.45;;
25615;SDS011;13482;48.234;13.006;2023-03-01T15:47:39;7.53;;;4.57;;
25615;SDS011;13482;48.234;13.006;2023-03-01T15:53:04;5.65;;;4.25;;
25615;SDS011;13482;48.234;13.006;2023-03-01T15:55:38;7.32;;;4.82;;
25615;SDS011;13482;48.234;13.006;2023-03-01T15:58:09;6.70;;;5.00;;
25615;SDS011;13482;48.234;13.006;2023-03-01T16:00:42;7.18;;;5.18;;
25615;SDS011;13482;48.234;13.006;2023-03-01T16:03:24;8.10;;;5.07;;
25615;SDS011;13482;48.234;13.006;2023-03-01T16:05:52;7.65;;;5.22;;
25615;SDS011;13482;48.234;13.006;2023-03-01T16:08:20;7.75;;;5.35;;
25615;SDS011;13482;48.234;13.006;2023-03-01T16:10:49;8.43;;;5.72;;
25615;SDS011;13482;48.234;13.006;2023-03-01T16:13:17;7.55;;;5.53;;
25615;SDS011;13482;48.234;13.006;2023-03-01T16:15:45;7.55;;;5.32;;
25615;SDS011;13482;48.234;13.006;2023-03-01T16:18:13;7.20;;;5.65;;
25615;SDS011;13482;48.234;13.006;2023-03-01T16:20:40;8.00;;;5.43;;
25615;SDS011;13482;48.234;13.006;2023-03-01T16:23:08;7.35;;;5.35;;
25615;SDS011;13482;48.234;13.006;2023-03-01T16:25:37;8.25;;;5.40;;
25615;SDS011;13482;48.234;13.006;2023-03-01T16:28:04;8.00;;;5.38;;
25615;SDS011;13482;48.234;13.006;2023-03-01T16:30:36;8.97;;;5.30;;
25615;SDS011;13482;48.234;13.006;2023-03-01T16:33:06;8.77;;;5.70;;
25615;SDS011;13482;48.234;13.006;2023-03-01T16:35:50;7.72;;;5.45;;
25615;SDS011;13482;48.234;13.006;2023-03-01T16:38:17;8.68;;;5.70;;
25615;SDS011;13482;48.234;13.006;2023-03-01T16:40:48;7.80;;;5.15;;
25615;SDS011;13482;48.234;13.006;2023-03-01T16:43:17;8.95;;;5.93;;
25615;SDS011;13482;48.234;13.006;2023-03-01T16:45:44;9.18;;;5.50;;
25615;SDS011;13482;48.234;13.006;2023-03-01T16:48:13;11.35;;;6.05;;
25615;SDS011;13482;48.234;13.006;2023-03-01T16:50:40;7.15;;;5.32;;
25615;SDS011;13482;48.234;13.006;2023-03-01T16:53:08;7.78;;;5.38;;
25615;SDS011;13482;48.234;13.006;2023-03-01T16:55:35;8.98;;;5.70;;
25615;SDS011;13482;48.234;13.006;2023-03-01T16:58:04;7.68;;;5.40;;
25615;SDS011;13482;48.234;13.006;2023-03-01T17:00:32;7.88;;;5.75;;
25615;SDS011;13482;48.234;13.006;2023-03-01T17:02:59;8.52;;;5.60;;
25615;SDS011;13482;48.234;13.006;2023-03-01T17:05:27;7.40;;;5.22;;
25615;SDS011;13482;48.234;13.006;2023-03-01T17:07:54;8.98;;;5.50;;
25615;SDS011;13482;48.234;13.006;2023-03-01T17:10:22;9.52;;;5.43;;
25615;SDS011;13482;48.234;13.006;2023-03-01T17:12:49;9.07;;;5.50;;
25615;SDS011;13482;48.234;13.006;2023-03-01T17:15:16;8.52;;;5.80;;
25615;SDS011;13482;48.234;13.006;2023-03-01T17:17:44;8.88;;;5.47;;
25615;SDS011;13482;48.234;13.006;2023-03-01T17:20:11;8.50;;;5.57;;
25615;SDS011;13482;48.234;13.006;2023-03-01T17:22:38;8.30;;;5.55;;
25615;SDS011;13482;48.234;13.006;2023-03-01T17:25:07;8.15;;;5.43;;
25615;SDS011;13482;48.234;13.006;2023-03-01T17:27:36;7.72;;;5.30;;
25615;SDS011;13482;48.234;13.006;2023-03-01T17:30:05;7.60;;;5.40;;
25615;SDS011;13482;48.234;13.006;2023-03-01T17:32:36;7.97;;;5.07;;
25615;SDS011;13482;48.234;13.006;2023-03-01T17:35:04;8.43;;;5.10;;
25615;SDS011;13482;48.234;13.006;2023-03-01T17:37:33;8.88;;;5.57;;
25615;SDS011;13482;48.234;13.006;2023-03-01T17:40:00;8.52;;;5.25;;
25615;SDS011;13482;48.234;13.006;2023-03-01T17:42:28;8.85;;;5.80;;
25615;SDS011;13482;48.234;13.006;2023-03-01T17:44:55;7.80;;;5.13;;
25615;SDS011;13482;48.234;13.006;2023-03-01T17:47:23;8.57;;;5.43;;
25615;SDS011;13482;48.234;13.006;2023-03-01T17:49:50;10.25;;;5.15;;
25615;SDS011;13482;48.234;13.006;2023-03-01T17:52:17;7.60;;;4.72;;
25615;SDS011;13482;48.234;13.006;2023-03-01T17:54:49;9.05;;;4.95;;